createdAt,value
2022-10-08T04:30:54.033Z,95.84
2022-10-08T04:31:53.875Z,96.15
2022-10-08T04:32:53.879Z,96.15
2022-10-08T04:33:53.855Z,96.15
2022-10-08T04:34:53.864Z,96.25
2022-10-08T04:35:58.970Z,95.84
2022-10-08T04:36:54.826Z,95.84
2022-10-08T04:37:53.810Z,96.10
2022-10-08T04:38:53.806Z,96.35
2022-10-08T04:39:53.787Z,95.53
2022-10-08T04:40:53.803Z,95.79
2022-10-08T04:41:53.781Z,95.94
2022-10-08T04:42:53.762Z,96.10
2022-10-08T04:43:53.744Z,95.49
2022-10-08T04:44:53.755Z,95.39
2022-10-08T04:45:53.765Z,95.59
2022-10-08T04:46:53.750Z,95.53
2022-10-08T04:47:53.702Z,95.49
2022-10-08T04:48:53.689Z,95.59
2022-10-08T04:49:53.684Z,95.49
2022-10-08T04:50:53.666Z,95.39
2022-10-08T04:51:53.656Z,95.49
2022-10-08T04:52:53.676Z,95.59
2022-10-08T04:53:53.631Z,95.79
2022-10-08T04:54:53.625Z,95.79
2022-10-08T04:55:53.619Z,95.90
2022-10-08T04:56:53.602Z,95.90
2022-10-08T04:57:53.589Z,96.10
2022-10-08T04:58:53.621Z,95.79
2022-10-08T05:00:16.410Z,96.20
2022-10-08T05:00:54.560Z,95.86
2022-10-08T05:01:53.634Z,95.90
2022-10-08T05:02:53.625Z,95.95
2022-10-08T05:03:53.548Z,95.75
2022-10-08T05:04:53.564Z,95.75
2022-10-08T05:05:53.503Z,96.26
2022-10-08T05:06:53.497Z,95.65
2022-10-08T05:07:53.480Z,95.54
2022-10-08T05:08:53.492Z,96.16
2022-10-08T05:09:53.453Z,96.26
2022-10-08T05:10:53.457Z,95.44
2022-10-08T05:11:53.435Z,95.86
2022-10-08T05:12:53.429Z,96.06
2022-10-08T05:13:53.442Z,96.01
2022-10-08T05:14:53.418Z,95.65
2022-10-08T05:15:53.493Z,95.29
2022-10-08T05:16:53.412Z,95.24
2022-10-08T05:17:53.367Z,95.44
2022-10-08T05:18:53.408Z,95.29
2022-10-08T05:19:53.360Z,95.09
2022-10-08T05:20:53.346Z,95.34
2022-10-08T05:21:53.349Z,95.40
2022-10-08T05:22:53.331Z,96.06
2022-10-08T05:23:53.305Z,96.22
2022-10-08T05:24:53.315Z,95.81
2022-10-08T05:25:53.283Z,96.22
2022-10-08T05:26:58.474Z,95.81
2022-10-08T05:27:54.259Z,95.91
2022-10-08T05:28:53.257Z,95.70
2022-10-08T05:29:53.261Z,95.91
2022-10-08T05:30:53.290Z,95.91
2022-10-08T05:31:53.218Z,95.70
2022-10-08T05:32:53.213Z,95.81
2022-10-08T05:33:53.210Z,96.12
2022-10-08T05:34:53.257Z,96.01
2022-10-08T05:35:53.174Z,95.91
2022-10-08T05:36:53.166Z,95.70
2022-10-08T05:37:53.152Z,95.70
2022-10-08T05:38:53.145Z,95.76
2022-10-08T05:39:53.157Z,95.81
2022-10-08T05:40:53.126Z,96.07
2022-10-08T05:41:53.108Z,96.07
2022-10-08T05:42:53.097Z,95.81
2022-10-08T05:43:53.088Z,96.07
2022-10-08T05:44:53.079Z,96.17
2022-10-08T05:45:53.091Z,95.97
2022-10-08T05:46:53.148Z,95.87
2022-10-08T05:47:53.043Z,95.66
2022-10-08T05:48:53.035Z,96.17
2022-10-08T05:49:53.017Z,96.17
2022-10-08T05:50:53.028Z,96.28
2022-10-08T05:51:53.021Z,96.07
2022-10-08T05:52:53.001Z,96.07
2022-10-08T05:53:52.979Z,95.87
2022-10-08T05:54:52.995Z,96.03
2022-10-08T05:55:52.957Z,96.03
2022-10-08T05:56:52.943Z,95.82
2022-10-08T05:57:52.938Z,96.03
2022-10-08T05:58:52.957Z,95.82
2022-10-08T05:59:52.917Z,96.17
2022-10-08T06:00:52.904Z,96.33
2022-10-08T06:01:52.888Z,96.13
2022-10-08T06:02:52.967Z,96.33
2022-10-08T06:03:52.871Z,96.23
2022-10-08T06:04:52.951Z,95.82
2022-10-08T06:05:52.858Z,95.72
2022-10-08T06:06:52.884Z,95.92
2022-10-08T06:07:52.839Z,96.03
2022-10-08T06:08:52.818Z,96.03
2022-10-08T06:09:52.806Z,95.41
2022-10-08T06:10:52.813Z,95.82
2022-10-08T06:11:52.786Z,95.62
2022-10-08T06:12:52.791Z,95.57
2022-10-08T06:13:52.764Z,95.67
2022-10-08T06:14:52.763Z,96.08
2022-10-08T06:15:52.804Z,96.08
2022-10-08T06:16:52.760Z,96.13
2022-10-08T06:17:52.739Z,96.23
2022-10-08T06:18:52.703Z,96.08
2022-10-08T06:19:52.705Z,96.39
2022-10-08T06:20:52.683Z,95.78
2022-10-08T06:21:52.679Z,95.88
2022-10-08T06:22:52.678Z,95.88
2022-10-08T06:23:52.675Z,95.67
2022-10-08T06:24:52.639Z,95.84
2022-10-08T06:25:52.627Z,95.84
2022-10-08T06:26:52.624Z,95.84
2022-10-08T06:27:52.609Z,95.84
2022-10-08T06:28:52.628Z,95.53
2022-10-08T06:29:52.606Z,96.34
2022-10-08T06:30:52.570Z,96.14
2022-10-08T06:31:52.644Z,96.14
2022-10-08T06:32:52.551Z,96.04
2022-10-08T06:33:52.538Z,95.94
2022-10-08T06:34:52.541Z,95.63
2022-10-08T06:35:52.541Z,95.53
2022-10-08T06:36:52.508Z,95.53
2022-10-08T06:37:52.497Z,95.53
2022-10-08T06:38:52.500Z,95.84
2022-10-08T06:39:52.494Z,96.04
2022-10-08T06:40:52.484Z,95.53
2022-10-08T06:41:52.472Z,95.53
2022-10-08T06:42:52.445Z,95.73
2022-10-08T06:43:52.436Z,95.73
2022-10-08T06:44:52.417Z,95.69
2022-10-08T06:45:52.411Z,95.48
2022-10-08T06:46:52.523Z,95.79
2022-10-08T06:47:52.388Z,95.59
2022-10-08T06:48:52.373Z,94.97
2022-10-08T06:49:52.401Z,95.07
2022-10-08T06:50:52.363Z,95.18
2022-10-08T06:51:52.350Z,95.18
2022-10-08T06:52:52.340Z,95.28
2022-10-08T06:53:52.322Z,95.28
2022-10-08T06:54:52.335Z,95.48
2022-10-08T06:55:52.320Z,95.07
2022-10-08T06:56:52.288Z,94.77
2022-10-08T06:57:52.278Z,94.71
2022-10-08T06:58:52.277Z,94.10
2022-10-08T06:59:52.255Z,93.95
2022-10-08T07:00:52.308Z,94.10
2022-10-08T07:01:52.319Z,94.36
2022-10-08T07:02:52.224Z,94.36
2022-10-08T07:03:52.217Z,94.06
2022-10-08T07:04:52.237Z,94.26
2022-10-08T07:05:52.191Z,94.36
2022-10-08T07:06:52.179Z,94.15
2022-10-08T07:07:52.189Z,94.15
2022-10-08T07:08:52.181Z,93.91
2022-10-08T07:09:52.159Z,94.42
2022-10-08T07:10:52.149Z,94.11
2022-10-08T07:11:52.203Z,93.80
2022-10-08T07:12:52.119Z,93.80
2022-10-08T07:13:52.107Z,93.96
2022-10-08T07:14:52.097Z,94.52
2022-10-08T07:15:52.157Z,93.76
2022-10-08T07:16:52.123Z,93.96
2022-10-08T07:17:52.100Z,93.86
2022-10-08T07:18:52.052Z,94.37
2022-10-08T07:19:52.036Z,94.17
2022-10-08T07:20:52.052Z,93.55
2022-10-08T07:21:52.020Z,93.82
2022-10-08T07:22:52.007Z,94.02
2022-10-08T07:23:52.011Z,94.02
2022-10-08T07:24:52.008Z,93.71
2022-10-08T07:25:51.969Z,93.62
2022-10-08T07:26:51.978Z,93.71
2022-10-08T07:27:51.969Z,93.67
2022-10-08T07:28:51.951Z,93.10
2022-10-08T07:29:51.944Z,92.96
2022-10-08T07:30:51.919Z,93.41
2022-10-08T07:31:51.985Z,93.31
2022-10-08T07:32:51.902Z,93.47
2022-10-08T07:33:51.883Z,93.37
2022-10-08T07:34:52.620Z,93.47
2022-10-08T07:35:51.876Z,92.96
2022-10-08T07:36:51.869Z,92.76
2022-10-08T07:37:51.862Z,91.94
2022-10-08T07:38:51.851Z,92.45
2022-10-08T07:39:51.820Z,91.43
2022-10-08T07:40:51.810Z,91.22
2022-10-08T07:41:51.809Z,91.28
2022-10-08T07:42:51.821Z,91.49
2022-10-08T07:43:51.771Z,90.77
2022-10-08T07:44:51.784Z,90.73
2022-10-08T07:45:51.855Z,91.24
2022-10-08T07:46:51.739Z,91.14
2022-10-08T07:47:51.762Z,90.63
2022-10-08T07:48:51.719Z,90.01
2022-10-08T07:49:51.737Z,90.53
2022-10-08T07:50:51.699Z,90.73
2022-10-08T07:51:51.694Z,89.92
2022-10-08T07:52:51.675Z,90.12
2022-10-08T07:53:51.700Z,90.12
2022-10-08T07:54:51.661Z,90.63
2022-10-08T07:55:51.639Z,90.63
2022-10-08T07:56:51.630Z,91.50
2022-10-08T07:57:51.625Z,91.24
2022-10-08T07:58:51.701Z,91.03
2022-10-08T07:59:51.635Z,90.89
2022-10-08T08:00:51.618Z,91.30
2022-10-08T08:01:51.639Z,92.36
2022-10-08T08:02:51.561Z,92.36
2022-10-08T08:03:51.556Z,92.11
2022-10-08T08:04:51.563Z,91.81
2022-10-08T08:05:51.538Z,91.91
2022-10-08T08:06:51.542Z,91.91
2022-10-08T08:07:53.349Z,91.91
2022-10-08T08:08:51.502Z,92.18
2022-10-08T08:09:51.487Z,91.87
2022-10-08T08:10:51.478Z,92.18
2022-10-08T08:11:51.515Z,91.83
2022-10-08T08:12:51.454Z,91.93
2022-10-08T08:13:51.445Z,91.11
2022-10-08T08:14:51.447Z,91.11
2022-10-08T08:15:51.420Z,91.22
2022-10-08T08:16:51.495Z,91.27
2022-10-08T08:17:51.415Z,91.48
2022-10-08T08:18:51.390Z,91.78
2022-10-08T08:19:51.377Z,91.27
2022-10-08T08:20:51.371Z,91.58
2022-10-08T08:21:51.360Z,91.99
2022-10-08T08:22:51.369Z,91.78
2022-10-08T08:23:51.365Z,91.48
2022-10-08T08:24:51.329Z,91.68
2022-10-08T08:25:51.315Z,91.31
2022-10-08T08:26:54.325Z,91.11
2022-10-08T08:27:52.307Z,92.03
2022-10-08T08:28:51.293Z,92.13
2022-10-08T08:29:51.301Z,92.84
2022-10-08T08:30:51.277Z,93.21
2022-10-08T08:31:51.341Z,92.49
2022-10-08T08:32:51.247Z,93.10
2022-10-08T08:33:51.253Z,93.37
2022-10-08T08:34:51.215Z,93.06
2022-10-08T08:35:51.224Z,93.06
2022-10-08T08:36:51.196Z,92.70
2022-10-08T08:37:51.207Z,92.80
2022-10-08T08:38:51.173Z,93.06
2022-10-08T08:39:51.195Z,93.06
2022-10-08T08:40:51.155Z,93.06
2022-10-08T08:41:51.163Z,93.26
2022-10-08T08:42:51.127Z,92.35
2022-10-08T08:43:51.119Z,93.02
2022-10-08T08:44:51.103Z,92.61
2022-10-08T08:45:51.152Z,92.91
2022-10-08T08:46:51.108Z,92.41
2022-10-08T08:47:51.084Z,91.60
2022-10-08T08:48:51.058Z,91.80
2022-10-08T08:49:51.048Z,91.90
2022-10-08T08:50:51.064Z,92.10
2022-10-08T08:51:51.025Z,91.74
2022-10-08T08:52:51.018Z,91.60
2022-10-08T08:53:51.009Z,91.23
2022-10-08T08:54:51.016Z,90.68
2022-10-08T08:55:50.985Z,90.52
2022-10-08T08:56:50.965Z,91.09
2022-10-08T08:57:50.977Z,90.88
2022-10-08T08:58:50.960Z,90.33
2022-10-08T08:59:50.951Z,89.68
2022-10-08T09:00:50.988Z,88.76
2022-10-08T09:01:50.955Z,88.89
2022-10-08T09:02:50.948Z,88.68
2022-10-08T09:03:50.891Z,87.52
2022-10-08T09:04:50.898Z,86.98
2022-10-08T09:05:50.936Z,85.96
2022-10-08T09:06:50.866Z,84.81
2022-10-08T09:07:50.852Z,84.61
2022-10-08T09:08:50.861Z,84.97
2022-10-08T09:09:50.831Z,83.76
2022-10-08T09:10:50.816Z,83.15
2022-10-08T09:11:50.823Z,84.20
2022-10-08T09:12:50.824Z,84.70
2022-10-08T09:13:50.806Z,85.11
2022-10-08T09:14:50.790Z,84.10
2022-10-08T09:15:50.780Z,83.80
2022-10-08T09:16:50.813Z,83.49
2022-10-08T09:17:50.761Z,82.84
2022-10-08T09:18:50.745Z,83.01
2022-10-08T09:19:50.719Z,81.49
2022-10-08T09:20:50.719Z,81.69
2022-10-08T09:21:50.692Z,81.85
2022-10-08T09:22:50.715Z,81.41
2022-10-08T09:23:50.685Z,80.10
2022-10-08T09:24:50.662Z,80.54
2022-10-08T09:25:50.683Z,80.68
2022-10-08T09:26:50.651Z,80.92
2022-10-08T09:27:50.638Z,81.63
2022-10-08T09:28:50.617Z,82.03
2022-10-08T09:29:50.627Z,82.34
2022-10-08T09:30:50.704Z,82.14
2022-10-08T09:31:50.596Z,81.49
2022-10-08T09:32:50.582Z,81.69
2022-10-08T09:33:50.560Z,81.11
2022-10-08T09:34:50.568Z,79.29
2022-10-08T09:35:50.596Z,79.29
2022-10-08T09:36:50.531Z,80.30
2022-10-08T09:37:50.520Z,79.43
2022-10-08T09:38:50.528Z,80.44
2022-10-08T09:39:50.517Z,80.60
2022-10-08T09:40:50.487Z,79.69
2022-10-08T09:41:50.475Z,80.40
2022-10-08T09:42:50.597Z,79.33
2022-10-08T09:43:50.451Z,79.73
2022-10-08T09:44:50.461Z,80.20
2022-10-08T09:45:50.496Z,79.29
2022-10-08T09:46:50.419Z,78.44
2022-10-08T09:47:50.407Z,79.15
2022-10-08T09:48:50.420Z,77.53
2022-10-08T09:49:50.395Z,77.06
2022-10-08T09:50:50.387Z,77.50
2022-10-08T09:51:50.446Z,77.40
2022-10-08T09:52:50.639Z,78.82
2022-10-08T09:53:50.366Z,76.73
2022-10-08T09:54:50.352Z,77.34
2022-10-08T09:55:50.326Z,77.75
2022-10-08T09:56:50.315Z,78.35
2022-10-08T09:57:50.338Z,77.75
2022-10-08T09:58:50.320Z,77.34
2022-10-08T09:59:50.288Z,77.71
2022-10-08T10:00:50.317Z,77.91
2022-10-08T10:01:50.378Z,78.28
2022-10-08T10:02:50.479Z,77.03
2022-10-08T10:03:50.320Z,76.52
2022-10-08T10:04:50.215Z,76.72
2022-10-08T10:05:50.210Z,75.71
2022-10-08T10:06:50.272Z,76.12
2022-10-08T10:07:50.220Z,75.01
2022-10-08T10:08:50.181Z,74.70
2022-10-08T10:09:50.182Z,75.21
2022-10-08T10:10:50.158Z,75.27
2022-10-08T10:11:50.147Z,73.55
2022-10-08T10:12:50.551Z,73.22
2022-10-08T10:13:50.142Z,72.17
2022-10-08T10:14:50.139Z,70.76
2022-10-08T10:15:50.126Z,71.67
2022-10-08T10:16:50.156Z,71.47
2022-10-08T10:17:50.085Z,72.44
2022-10-08T10:18:50.071Z,70.83
2022-10-08T10:19:50.065Z,70.79
2022-10-08T10:20:50.042Z,68.98
2022-10-08T10:21:50.084Z,68.37
2022-10-08T10:22:50.457Z,67.27
2022-10-08T10:23:50.014Z,68.24
2022-10-08T10:24:50.002Z,69.05
2022-10-08T10:25:49.996Z,65.65
2022-10-08T10:26:49.985Z,66.73
2022-10-08T10:27:50.027Z,67.63
2022-10-08T10:28:49.961Z,66.83
2022-10-08T10:29:49.947Z,66.70
2022-10-08T10:30:49.986Z,65.89
2022-10-08T10:31:49.931Z,65.09
2022-10-08T10:32:50.216Z,65.76
2022-10-08T10:33:49.933Z,64.18
2022-10-08T10:34:49.894Z,64.98
2022-10-08T10:35:49.883Z,64.28
2022-10-08T10:36:49.881Z,65.99
2022-10-08T10:37:49.898Z,66.22
2022-10-08T10:38:49.865Z,67.23
2022-10-08T10:39:49.856Z,68.17
2022-10-08T10:40:49.835Z,67.16
2022-10-08T10:41:49.813Z,68.30
2022-10-08T10:42:50.359Z,68.37
2022-10-08T10:43:49.824Z,69.92
2022-10-08T10:44:49.788Z,69.31
2022-10-08T10:45:49.852Z,69.51
2022-10-08T10:46:49.761Z,69.21
2022-10-08T10:47:49.751Z,68.84
2022-10-08T10:48:49.753Z,69.34
2022-10-08T10:49:49.759Z,69.14
2022-10-08T10:50:49.719Z,69.65
2022-10-08T10:51:49.734Z,68.87
2022-10-08T10:52:57.272Z,69.34
2022-10-08T10:53:49.712Z,70.86
2022-10-08T10:54:49.743Z,71.47
2022-10-08T10:55:54.469Z,70.56
2022-10-08T10:56:50.648Z,70.83
2022-10-08T10:57:49.713Z,71.67
2022-10-08T10:58:49.713Z,71.03
2022-10-08T10:59:49.649Z,68.60
2022-10-08T11:00:49.662Z,68.47
2022-10-08T11:01:49.671Z,68.77
2022-10-08T11:02:50.005Z,68.44
2022-10-08T11:03:49.766Z,68.21
2022-10-08T11:04:49.646Z,66.86
2022-10-08T11:05:49.565Z,65.45
2022-10-08T11:06:49.597Z,66.96
2022-10-08T11:07:49.581Z,66.25
2022-10-08T11:08:49.541Z,65.85
2022-10-08T11:09:49.515Z,66.36
2022-10-08T11:10:49.545Z,66.12
2022-10-08T11:11:49.501Z,66.45
2022-10-08T11:12:50.066Z,68.47
2022-10-08T11:13:49.486Z,68.47
2022-10-08T11:14:49.502Z,68.37
2022-10-08T11:15:49.531Z,68.27
2022-10-08T11:16:49.461Z,68.30
2022-10-08T11:17:49.419Z,68.40
2022-10-08T11:18:49.467Z,69.14
2022-10-08T11:19:49.393Z,69.65
2022-10-08T11:20:49.475Z,69.24
2022-10-08T11:21:49.385Z,69.89
2022-10-08T11:22:50.003Z,70.79
2022-10-08T11:23:49.376Z,71.30
2022-10-08T11:24:49.402Z,71.00
2022-10-08T11:26:15.292Z,69.27
2022-10-08T11:26:50.341Z,71.26
2022-10-08T11:27:49.327Z,70.46
2022-10-08T11:28:49.399Z,71.23
2022-10-08T11:29:49.332Z,70.83
2022-10-08T11:30:49.368Z,69.08
2022-10-08T11:31:49.296Z,69.98
2022-10-08T11:32:49.967Z,69.98
2022-10-08T11:33:49.245Z,69.38
2022-10-08T11:34:49.229Z,70.29
2022-10-08T11:35:49.263Z,69.01
2022-10-08T11:36:49.230Z,69.71
2022-10-08T11:38:01.980Z,69.51
2022-10-08T11:38:49.257Z,69.21
2022-10-08T11:39:49.186Z,69.75
2022-10-08T11:40:49.198Z,71.37
2022-10-08T11:41:49.187Z,71.37
2022-10-08T11:42:49.599Z,71.67
2022-10-08T11:43:49.194Z,72.08
2022-10-08T11:44:49.159Z,71.00
2022-10-08T11:45:49.214Z,71.30
2022-10-08T11:46:49.105Z,70.79
2022-10-08T11:47:49.141Z,71.70
2022-10-08T11:48:49.083Z,72.51
2022-10-08T11:49:49.073Z,71.40
2022-10-08T11:50:49.064Z,72.31
2022-10-08T11:51:49.068Z,71.87
2022-10-08T11:52:49.460Z,72.08
2022-10-08T11:53:49.027Z,72.55
2022-10-08T11:54:52.996Z,71.91
2022-10-08T11:55:50.037Z,69.78
2022-10-08T11:56:49.003Z,69.98
2022-10-08T11:58:07.245Z,70.76
2022-10-08T11:58:50.474Z,70.06
2022-10-08T11:59:49.046Z,69.24
2022-10-08T12:00:48.967Z,68.33
2022-10-08T12:01:48.945Z,68.44
2022-10-08T12:02:49.347Z,68.64
2022-10-08T12:03:58.051Z,68.33
2022-10-08T12:04:48.902Z,67.50
2022-10-08T12:05:50.434Z,67.10
2022-10-08T12:06:48.914Z,67.50
2022-10-08T12:07:48.913Z,66.29
2022-10-08T12:08:48.882Z,67.02
2022-10-08T12:09:48.946Z,68.64
2022-10-08T12:10:48.912Z,69.95
2022-10-08T12:11:48.859Z,67.73
2022-10-08T12:12:49.154Z,67.43
2022-10-08T12:13:48.860Z,68.47
2022-10-08T12:14:48.871Z,68.37
2022-10-08T12:15:48.869Z,69.68
2022-10-08T12:16:48.855Z,69.28
2022-10-08T12:17:48.854Z,69.98
2022-10-08T12:18:48.753Z,68.20
2022-10-08T12:19:48.786Z,68.40
2022-10-08T12:20:48.751Z,68.74
2022-10-08T12:21:48.726Z,69.24
2022-10-08T12:22:49.119Z,68.63
2022-10-08T12:23:48.750Z,68.97
2022-10-08T12:24:50.499Z,69.81
2022-10-08T12:25:48.837Z,70.62
2022-10-08T12:26:48.661Z,70.42
2022-10-08T12:27:48.657Z,71.23
2022-10-08T12:28:48.692Z,71.33
2022-10-08T12:29:48.664Z,70.49
2022-10-08T12:30:48.627Z,70.25
2022-10-08T12:31:49.760Z,70.15
2022-10-08T12:32:48.976Z,70.15
2022-10-08T12:33:48.657Z,68.54
2022-10-08T12:34:48.585Z,70.22
2022-10-08T12:35:48.569Z,69.31
2022-10-08T12:36:48.603Z,68.91
2022-10-08T12:37:48.994Z,68.67
2022-10-08T12:38:57.140Z,68.47
2022-10-08T12:39:48.529Z,67.46
2022-10-08T12:40:48.509Z,66.96
2022-10-08T12:41:48.501Z,67.16
2022-10-08T12:42:48.608Z,68.64
2022-10-08T12:43:48.481Z,67.26
2022-10-08T12:44:48.509Z,66.55
2022-10-08T12:45:48.505Z,67.06
2022-10-08T12:46:50.681Z,65.44
2022-10-08T12:47:48.700Z,67.46
2022-10-08T12:48:48.430Z,65.95
2022-10-08T12:49:48.404Z,66.02
2022-10-08T12:50:48.560Z,67.16
2022-10-08T12:51:58.348Z,66.25
2022-10-08T12:52:48.480Z,65.51
2022-10-08T12:53:48.416Z,65.51
2022-10-08T12:54:48.352Z,64.90
2022-10-08T12:55:48.344Z,64.81
2022-10-08T12:56:48.355Z,64.90
2022-10-08T12:57:48.759Z,64.20
2022-10-08T12:58:48.441Z,64.61
2022-10-08T12:59:48.375Z,64.61
2022-10-08T13:00:48.410Z,64.61
2022-10-08T13:01:48.328Z,64.70
2022-10-08T13:02:48.275Z,63.93
2022-10-08T13:03:48.299Z,64.46
2022-10-08T13:04:48.232Z,64.67
2022-10-08T13:05:48.244Z,65.37
2022-10-08T13:06:48.348Z,65.54
2022-10-08T13:07:48.503Z,65.84
2022-10-08T13:08:48.207Z,66.15
2022-10-08T13:09:48.346Z,65.24
2022-10-08T13:10:57.146Z,65.14
2022-10-08T13:11:53.737Z,66.05
2022-10-08T13:12:49.181Z,65.84
2022-10-08T13:13:48.150Z,66.86
2022-10-08T13:14:48.134Z,66.18
2022-10-08T13:15:48.301Z,66.35
2022-10-08T13:16:48.233Z,65.64
2022-10-08T13:17:48.350Z,65.75
2022-10-08T13:18:48.204Z,65.24
2022-10-08T13:19:48.167Z,66.12
2022-10-08T13:20:48.087Z,66.05
2022-10-08T13:21:48.127Z,64.33
2022-10-08T13:22:48.063Z,65.84
2022-10-08T13:23:48.024Z,65.75
2022-10-08T13:24:48.035Z,66.65
2022-10-08T13:25:48.028Z,65.95
2022-10-08T13:26:48.006Z,66.15
2022-10-08T13:27:48.302Z,67.09
2022-10-08T13:29:00.007Z,67.76
2022-10-08T13:29:48.986Z,67.26
2022-10-08T13:30:48.013Z,67.76
2022-10-08T13:31:48.089Z,67.76
2022-10-08T13:32:47.929Z,68.17
2022-10-08T13:33:47.911Z,68.37
2022-10-08T13:34:48.019Z,66.86
2022-10-08T13:35:47.928Z,66.86
2022-10-08T13:36:47.889Z,68.37
2022-10-08T13:37:48.190Z,67.60
2022-10-08T13:38:47.858Z,67.69
2022-10-08T13:39:47.958Z,68.60
2022-10-08T13:40:47.833Z,68.30
2022-10-08T13:41:51.641Z,68.51
2022-10-08T13:42:47.856Z,67.46
2022-10-08T13:43:47.904Z,68.40
2022-10-08T13:44:47.872Z,68.27
2022-10-08T13:45:47.795Z,67.56
2022-10-08T13:46:47.866Z,67.80
2022-10-08T13:47:48.029Z,67.39
2022-10-08T13:48:47.772Z,67.76
2022-10-08T13:49:47.786Z,67.29
2022-10-08T13:50:47.784Z,66.75
2022-10-08T13:51:47.716Z,67.16
2022-10-08T13:52:47.709Z,67.46
2022-10-08T13:53:47.755Z,66.96
2022-10-08T13:54:47.714Z,66.55
2022-10-08T13:55:47.682Z,66.65
2022-10-08T13:56:47.661Z,65.34
2022-10-08T13:57:47.919Z,65.95
2022-10-08T13:58:47.659Z,64.87
2022-10-08T13:59:47.763Z,64.67
2022-10-08T14:00:47.655Z,65.47
2022-10-08T14:01:47.695Z,65.88
2022-10-08T14:02:47.581Z,64.97
2022-10-08T14:03:47.584Z,65.78
2022-10-08T14:04:47.620Z,65.47
2022-10-08T14:05:47.570Z,64.29
2022-10-08T14:06:47.693Z,64.90
2022-10-08T14:07:47.940Z,65.00
2022-10-08T14:08:47.533Z,64.70
2022-10-08T14:09:47.603Z,65.10
2022-10-08T14:10:56.101Z,65.40
2022-10-08T14:11:47.566Z,66.14
2022-10-08T14:12:47.525Z,65.03
2022-10-08T14:13:47.516Z,65.73
2022-10-08T14:14:47.458Z,64.83
2022-10-08T14:15:47.642Z,64.93
2022-10-08T14:16:47.568Z,65.84
2022-10-08T14:17:47.743Z,65.84
2022-10-08T14:18:47.539Z,66.04
2022-10-08T14:19:47.489Z,66.17
2022-10-08T14:20:47.433Z,65.97
2022-10-08T14:21:47.424Z,65.77
2022-10-08T14:22:47.434Z,65.26
2022-10-08T14:23:47.392Z,65.26
2022-10-08T14:24:47.382Z,64.76
2022-10-08T14:25:54.928Z,64.55
2022-10-08T14:26:47.327Z,65.19
2022-10-08T14:27:47.627Z,65.16
2022-10-08T14:28:47.439Z,63.95
2022-10-08T14:29:47.344Z,63.04
2022-10-08T14:30:47.349Z,64.55
2022-10-08T14:31:47.410Z,64.99
2022-10-08T14:32:47.309Z,65.29
2022-10-08T14:33:47.339Z,65.50
2022-10-08T14:34:47.289Z,64.76
2022-10-08T14:35:47.263Z,64.79
2022-10-08T14:36:47.218Z,64.69
2022-10-08T14:37:47.506Z,64.79
2022-10-08T14:38:47.256Z,64.58
2022-10-08T14:39:47.198Z,65.36
2022-10-08T14:40:47.192Z,65.39
2022-10-08T14:41:47.172Z,65.29
2022-10-08T14:42:47.413Z,64.99
2022-10-08T14:43:47.212Z,62.86
2022-10-08T14:44:47.142Z,66.10
2022-10-08T14:45:47.176Z,65.90
2022-10-08T14:46:47.140Z,64.79
2022-10-08T14:47:47.116Z,64.79
2022-10-08T14:48:54.353Z,65.19
2022-10-08T14:49:47.111Z,64.69
2022-10-08T14:50:47.108Z,65.53
2022-10-08T14:51:47.060Z,65.32
2022-10-08T14:52:47.338Z,65.32
2022-10-08T14:53:47.047Z,65.22
2022-10-08T14:54:47.065Z,65.53
2022-10-08T14:56:10.590Z,65.53
2022-10-08T14:56:48.047Z,65.93
2022-10-08T14:57:46.999Z,66.33
2022-10-08T14:58:47.008Z,67.35
2022-10-08T14:59:46.964Z,66.16
2022-10-08T15:00:47.005Z,66.47
2022-10-08T15:01:46.990Z,67.28
2022-10-08T15:02:47.241Z,67.58
2022-10-08T15:03:46.990Z,66.16
2022-10-08T15:04:46.941Z,67.48
2022-10-08T15:05:46.915Z,67.89
2022-10-08T15:06:46.943Z,68.90
2022-10-08T15:07:47.213Z,68.80
2022-10-08T15:08:46.922Z,68.80
2022-10-08T15:09:46.860Z,69.20
2022-10-08T15:10:46.861Z,68.02
2022-10-08T15:11:46.891Z,69.03
2022-10-08T15:12:47.256Z,69.54
2022-10-08T15:13:46.860Z,68.73
2022-10-08T15:14:46.823Z,68.73
2022-10-08T15:15:46.828Z,69.13
2022-10-08T15:16:46.890Z,71.57
2022-10-08T15:17:47.118Z,69.03
2022-10-08T15:18:46.795Z,69.13
2022-10-08T15:19:46.757Z,70.86
2022-10-08T15:20:46.749Z,70.96
2022-10-08T15:21:46.738Z,72.38
2022-10-08T15:22:47.155Z,72.78
2022-10-08T15:23:46.711Z,72.61
2022-10-08T15:24:46.755Z,72.28
2022-10-08T15:25:46.704Z,70.76
2022-10-08T15:26:46.686Z,71.09
2022-10-08T15:27:46.693Z,71.57
2022-10-08T15:28:46.706Z,72.61
2022-10-08T15:29:46.648Z,74.10
2022-10-08T15:30:54.212Z,73.22
2022-10-08T15:31:46.763Z,73.22
2022-10-08T15:32:46.861Z,72.21
2022-10-08T15:33:56.283Z,72.34
2022-10-08T15:34:46.647Z,71.13
2022-10-08T15:35:46.571Z,68.08
2022-10-08T15:36:46.566Z,68.90
2022-10-08T15:37:46.642Z,67.38
2022-10-08T15:38:46.553Z,69.91
2022-10-08T15:39:46.635Z,70.83
2022-10-08T15:40:46.529Z,70.72
2022-10-08T15:41:46.504Z,70.72
2022-10-08T15:42:47.726Z,70.21
2022-10-08T15:43:46.503Z,67.78
2022-10-08T15:44:46.513Z,69.60
2022-10-08T15:45:46.570Z,68.90
2022-10-08T15:46:46.489Z,71.03
2022-10-08T15:47:46.441Z,71.73
2022-10-08T15:48:46.428Z,71.84
2022-10-08T15:49:46.422Z,69.23
2022-10-08T15:50:46.457Z,68.83
2022-10-08T15:51:46.411Z,70.25
2022-10-08T15:52:46.734Z,72.34
2022-10-08T15:53:46.396Z,71.16
2022-10-08T15:54:46.364Z,70.79
2022-10-08T15:55:46.364Z,69.57
2022-10-08T15:56:46.369Z,67.24
2022-10-08T15:57:46.341Z,67.61
2022-10-08T15:58:50.771Z,67.84
2022-10-08T15:59:47.361Z,69.06
2022-10-08T16:00:46.314Z,67.64
2022-10-08T16:01:46.299Z,67.33
2022-10-08T16:02:46.696Z,68.15
2022-10-08T16:03:46.271Z,67.20
2022-10-08T16:04:46.305Z,70.28
2022-10-08T16:05:46.263Z,71.30
2022-10-08T16:06:46.274Z,71.80
2022-10-08T16:07:46.242Z,69.06
2022-10-08T16:08:46.208Z,70.68
2022-10-08T16:09:46.262Z,72.45
2022-10-08T16:10:46.242Z,74.14
2022-10-08T16:11:46.206Z,73.77
2022-10-08T16:12:46.585Z,73.77
2022-10-08T16:13:46.167Z,73.87
2022-10-08T16:14:46.215Z,74.07
2022-10-08T16:15:46.149Z,73.87
2022-10-08T16:16:46.205Z,74.52
2022-10-08T16:17:46.119Z,72.69
2022-10-08T16:18:46.120Z,73.91
2022-10-08T16:19:46.115Z,72.89
2022-10-08T16:20:47.342Z,73.09
2022-10-08T16:21:46.092Z,73.30
2022-10-08T16:22:46.493Z,73.09
2022-10-08T16:23:46.062Z,71.97
2022-10-08T16:24:46.047Z,72.38
2022-10-08T16:25:46.025Z,73.02
2022-10-08T16:26:46.050Z,73.91
2022-10-08T16:27:46.335Z,74.92
2022-10-08T16:28:46.056Z,75.87
2022-10-08T16:29:46.003Z,74.76
2022-10-08T16:30:46.089Z,75.46
2022-10-08T16:31:45.971Z,74.35
2022-10-08T16:32:46.366Z,76.48
2022-10-08T16:33:45.949Z,74.28
2022-10-08T16:34:47.343Z,75.30
2022-10-08T16:35:45.925Z,76.31
2022-10-08T16:36:46.013Z,75.20
2022-10-08T16:37:45.926Z,77.44
2022-10-08T16:38:45.928Z,77.74
2022-10-08T16:39:45.907Z,78.15
2022-10-08T16:40:45.955Z,78.45
2022-10-08T16:41:45.869Z,78.05
2022-10-08T16:42:46.216Z,78.28
2022-10-08T16:43:45.839Z,79.00
2022-10-08T16:44:45.881Z,78.08
2022-10-08T16:45:45.891Z,77.87
2022-10-08T16:46:45.820Z,78.19
2022-10-08T16:47:45.791Z,77.40
2022-10-08T16:48:45.801Z,77.40
2022-10-08T16:49:45.783Z,78.12
2022-10-08T16:50:45.781Z,77.61
2022-10-08T16:51:45.756Z,78.12
2022-10-08T16:52:46.110Z,78.93
2022-10-08T16:53:46.579Z,79.34
2022-10-08T16:54:45.858Z,79.89
2022-10-08T16:55:45.716Z,79.64
2022-10-08T16:56:45.706Z,79.68
2022-10-08T16:57:51.317Z,77.24
2022-10-08T16:58:46.672Z,78.46
2022-10-08T16:59:45.665Z,79.17
2022-10-08T17:00:45.659Z,79.89
2022-10-08T17:01:45.732Z,80.19
2022-10-08T17:02:46.153Z,79.82
2022-10-08T17:03:45.690Z,80.23
2022-10-08T17:04:45.614Z,79.79
2022-10-08T17:05:45.641Z,80.80
2022-10-08T17:06:45.614Z,80.13
2022-10-08T17:07:45.597Z,80.29
2022-10-08T17:08:45.568Z,78.50
2022-10-08T17:09:45.549Z,79.72
2022-10-08T17:10:45.559Z,80.02
2022-10-08T17:11:45.524Z,80.02
2022-10-08T17:12:45.713Z,79.32
2022-10-08T17:13:45.510Z,79.21
2022-10-08T17:14:45.520Z,79.35
2022-10-08T17:15:45.491Z,79.72
2022-10-08T17:16:45.480Z,79.93
2022-10-08T17:17:45.497Z,80.54
2022-10-08T17:18:45.462Z,80.47
2022-10-08T17:19:45.448Z,80.78
2022-10-08T17:20:45.439Z,80.57
2022-10-08T17:21:45.436Z,80.98
2022-10-08T17:22:45.719Z,81.04